Time;durP1;ratioP1;P1;durP2;ratioP2;P2;SDS_P1;SDS_P2;PMS_P1;PMS_P2;Temp;Humidity;BMP_temperature;BMP_pressure;BME280_temperature;BME280_humidity;BME280_pressure;Samples;Min_cycle;Max_cycle;Signal;HPM_P1;HPM_P2
2021/07/02 00:00:21;;;;;;;8.30;6.65;;;;;;;21.38;100.00;98326.30;1610222;89;20971;-72
2021/07/02 00:02:50;;;;;;;10.05;6.53;;;;;;;21.34;100.00;98320.27;1583946;89;21517;-72
2021/07/02 00:05:19;;;;;;;9.00;6.25;;;;;;;21.32;100.00;98319.98;1610152;87;20963;-73
2021/07/02 00:07:48;;;;;;;6.92;6.25;;;;;;;21.31;100.00;98313.76;1610449;87;21094;-73
2021/07/02 00:10:16;;;;;;;7.28;6.25;;;;;;;21.29;100.00;98302.27;1610163;87;20915;-75
2021/07/02 00:12:45;;;;;;;8.05;7.05;;;;;;;21.27;100.00;98297.44;1583862;89;21025;-74
2021/07/02 00:15:14;;;;;;;13.53;7.72;;;;;;;21.25;100.00;98295.81;1610282;89;20927;-74
2021/07/02 00:17:44;;;;;;;10.38;7.37;;;;;;;21.23;100.00;98306.64;1610725;87;21437;-73
2021/07/02 00:20:15;;;;;;;7.67;6.65;;;;;;;21.21;100.00;98295.11;1610737;87;21118;-72
2021/07/02 00:22:44;;;;;;;9.90;7.58;;;;;;;21.23;100.00;98300.41;1583934;89;20962;-71
2021/07/02 00:25:13;;;;;;;8.85;6.90;;;;;;;21.24;100.00;98302.14;1610318;87;21052;-71
2021/07/02 00:27:44;;;;;;;9.20;6.70;;;;;;;21.23;100.00;98310.66;1610947;86;21398;-72
2021/07/02 00:30:23;;;;;;;14.58;6.85;;;;;;;21.22;100.00;98308.91;1610881;87;21061;-72
2021/07/02 00:32:56;;;;;;;13.00;6.50;;;;;;;21.21;100.00;98305.84;1610940;87;21485;-72
2021/07/02 00:35:26;;;;;;;13.85;6.72;;;;;;;21.19;100.00;98307.75;1584261;89;20930;-72
2021/07/02 00:38:00;;;;;;;19.10;6.97;;;;;;;21.17;100.00;98294.06;1610459;89;21542;-72
2021/07/02 00:40:39;;;;;;;19.98;7.20;;;;;;;21.16;100.00;98292.34;1610161;87;20978;-72
2021/07/02 00:43:08;;;;;;;15.68;7.40;;;;;;;21.12;100.00;98291.66;1610737;87;20975;-70
2021/07/02 00:45:37;;;;;;;19.82;7.62;;;;;;;21.08;100.00;98294.16;1585064;89;21515;-71
2021/07/02 00:48:06;;;;;;;13.72;6.53;;;;;;;21.01;100.00;98291.47;1603444;89;20932;-72
2021/07/02 00:50:36;;;;;;;12.73;6.42;;;;;;;20.94;100.00;98290.12;1610879;87;21438;-72
2021/07/02 00:53:05;;;;;;;12.07;5.92;;;;;;;20.89;100.00;98288.21;1610455;87;20979;-72
2021/07/02 00:55:35;;;;;;;14.70;6.50;;;;;;;20.86;100.00;98294.63;1584094;89;20962;-72
2021/07/02 00:58:04;;;;;;;12.03;6.50;;;;;;;20.82;100.00;98297.59;1610073;87;21100;-73
2021/07/02 01:00:34;;;;;;;9.00;6.40;;;;;;;20.78;100.00;98302.72;1610469;87;20970;-73
2021/07/02 01:03:04;;;;;;;9.58;6.37;;;;;;;20.73;100.00;98302.52;1610195;87;20994;-73
2021/07/02 01:05:35;;;;;;;11.60;5.55;;;;;;;20.71;100.00;98296.87;1584399;89;21380;-74
2021/07/02 01:08:06;;;;;;;12.45;6.22;;;;;;;20.69;100.00;98301.45;1608352;88;21454;-73
2021/07/02 01:10:39;;;;;;;10.75;6.10;;;;;;;20.69;100.00;98310.84;1608238;88;21501;-72
2021/07/02 01:13:09;;;;;;;12.03;7.40;;;;;;;20.68;100.00;98310.45;1608410;88;21453;-73
2021/07/02 01:15:39;;;;;;;7.83;6.85;;;;;;;20.69;100.00;98317.54;1609063;88;20983;-73
2021/07/02 01:18:13;;;;;;;8.73;6.92;;;;;;;20.69;100.00;98321.56;1608559;88;21457;-72
2021/07/02 01:20:49;;;;;;;11.55;6.50;;;;;;;20.68;100.00;98331.89;1609150;87;20943;-72
2021/07/02 01:23:20;;;;;;;11.30;6.05;;;;;;;20.67;100.00;98327.02;1608997;87;21390;-72
2021/07/02 01:25:50;;;;;;;14.58;6.55;;;;;;;20.69;100.00;98331.80;1609162;87;21382;-72
2021/07/02 01:28:21;;;;;;;10.53;6.95;;;;;;;20.68;100.00;98330.08;1607820;87;20967;-73
2021/07/02 01:30:51;;;;;;;12.88;7.58;;;;;;;20.67;100.00;98330.17;1608835;88;21393;-72
2021/07/02 01:33:21;;;;;;;12.58;8.45;;;;;;;20.63;100.00;98328.15;1609003;87;20988;-72
2021/07/02 01:35:51;;;;;;;12.80;6.67;;;;;;;20.61;100.00;98334.55;1589082;88;21505;-72
2021/07/02 01:38:22;;;;;;;8.93;7.25;;;;;;;20.60;100.00;98342.20;1609012;87;20875;-74
2021/07/02 01:40:52;;;;;;;10.80;7.50;;;;;;;20.58;100.00;98344.98;1608835;88;21405;-74
2021/07/02 01:43:24;;;;;;;11.28;7.53;;;;;;;20.57;100.00;98353.97;1589267;87;20987;-75
2021/07/02 01:45:55;;;;;;;13.30;7.78;;;;;;;20.54;100.00;98347.45;1608713;88;21494;-72
2021/07/02 01:48:26;;;;;;;12.70;7.15;;;;;;;20.53;100.00;98347.55;1608731;88;21938;-74
2021/07/02 01:50:55;;;;;;;10.98;6.80;;;;;;;20.50;100.00;98351.27;1608731;88;21402;-73
2021/07/02 01:53:25;;;;;;;13.85;6.90;;;;;;;20.50;100.00;98350.41;1588747;88;20907;-72
2021/07/02 01:55:53;;;;;;;13.68;7.53;;;;;;;20.49;100.00;98356.72;1608226;88;20989;-74
2021/07/02 01:58:22;;;;;;;10.68;7.83;;;;;;;20.47;100.00;98353.27;1609040;87;20938;-72
2021/07/02 02:01:06;;;;;;;9.95;7.85;;;;;;;20.45;100.00;98355.17;1606611;88;21537;-72
2021/07/02 02:03:35;;;;;;;11.60;7.45;;;;;;;20.40;100.00;98347.41;1608720;87;21450;-74
2021/07/02 02:06:05;;;;;;;8.68;6.97;;;;;;;20.39;100.00;98353.69;1611671;86;21046;-73
2021/07/02 02:08:39;;;;;;;10.98;7.30;;;;;;;20.38;100.00;98343.92;1663453;85;20991;-74
2021/07/02 02:11:08;;;;;;;12.63;7.25;;;;;;;20.38;100.00;98344.78;1662851;85;20871;-72
2021/07/02 02:13:42;;;;;;;9.23;7.75;;;;;;;20.37;100.00;98343.53;1663444;85;22151;-73
2021/07/02 02:16:12;;;;;;;12.07;8.35;;;;;;;20.36;100.00;98337.79;1663799;85;20887;-67
2021/07/02 02:18:46;;;;;;;14.23;7.97;;;;;;;20.33;100.00;98329.43;1663076;85;21482;-65
2021/07/02 02:21:16;;;;;;;12.28;7.67;;;;;;;20.32;100.00;98339.75;1663155;85;20974;-65
2021/07/02 02:23:51;;;;;;;14.87;7.83;;;;;;;20.32;100.00;98332.20;1662955;85;21485;-65
2021/07/02 02:26:31;;;;;;;12.60;8.88;;;;;;;20.31;100.00;98327.80;1663040;85;21445;-65
2021/07/02 02:29:20;;;;;;;15.38;8.95;;;;;;;20.33;100.00;98336.60;1662785;85;20954;-64
2021/07/02 02:31:53;;;;;;;20.12;7.95;;;;;;;20.34;100.00;98341.03;1653706;85;21473;-71
2021/07/02 02:34:27;;;;;;;15.83;7.87;;;;;;;20.36;100.00;98336.45;1626912;85;21426;-61
2021/07/02 02:37:04;;;;;;;17.27;7.85;;;;;;;20.37;100.00;98336.36;1661208;85;21462;-61
2021/07/02 02:39:42;;;;;;;13.83;7.78;;;;;;;20.39;100.00;98343.87;1663219;85;22055;-66
2021/07/02 02:42:31;;;;;;;15.23;7.55;;;;;;;20.41;100.00;98335.27;1662972;85;20871;-66
2021/07/02 02:45:09;;;;;;;25.95;8.18;;;;;;;20.42;100.00;98337.47;1661864;85;20959;-67
2021/07/02 02:47:40;;;;;;;28.87;8.18;;;;;;;20.42;100.00;98334.78;1632061;85;20962;-69
2021/07/02 02:50:15;;;;;;;14.33;7.37;;;;;;;20.43;100.00;98339.19;1663733;85;21546;-70
2021/07/02 02:52:50;;;;;;;12.00;7.83;;;;;;;20.47;100.00;98350.11;1663214;85;21140;-70
2021/07/02 02:55:24;;;;;;;12.88;7.70;;;;;;;20.48;100.00;98350.50;1663003;85;21436;-70
2021/07/02 02:57:57;;;;;;;13.40;7.42;;;;;;;20.49;100.00;98352.22;1662583;85;21465;-69
2021/07/02 03:00:31;;;;;;;21.33;8.33;;;;;;;20.50;100.00;98357.10;1662667;85;20867;-66
2021/07/02 03:03:01;;;;;;;28.47;8.33;;;;;;;20.51;100.00;98361.51;1636488;86;21002;-66
2021/07/02 03:05:30;;;;;;;21.35;7.60;;;;;;;20.53;100.00;98360.47;1662867;85;21106;-65
2021/07/02 03:07:59;;;;;;;12.33;7.50;;;;;;;20.54;100.00;98359.52;1662761;85;20891;-66
2021/07/02 03:10:31;;;;;;;15.05;7.97;;;;;;;20.53;100.00;98359.60;1663001;85;20911;-66
2021/07/02 03:13:01;;;;;;;15.78;7.20;;;;;;;20.51;100.00;98354.33;1663008;85;20954;-66
2021/07/02 03:15:31;;;;;;;19.90;8.35;;;;;;;20.50;100.00;98352.61;1662864;85;20930;-66
2021/07/02 03:18:01;;;;;;;10.20;7.42;;;;;;;20.49;100.00;98353.56;1651662;85;21461;-67
2021/07/02 03:20:33;;;;;;;12.50;6.97;;;;;;;20.51;100.00;98353.00;1634370;86;21505;-63
2021/07/02 03:23:03;;;;;;;12.07;6.53;;;;;;;20.55;100.00;98360.38;1634669;86;21469;-63
2021/07/02 03:25:32;;;;;;;18.62;7.67;;;;;;;20.59;100.00;98365.46;1608929;86;21481;-64
2021/07/02 03:28:00;;;;;;;18.77;8.73;;;;;;;20.62;100.00;98361.26;1634444;86;20922;-63
2021/07/02 03:30:33;;;;;;;32.48;9.80;;;;;;;20.66;100.00;98356.10;1634404;86;21156;-63
2021/07/02 03:33:02;;;;;;;18.32;7.37;;;;;;;20.71;100.00;98359.38;1652953;85;21041;-64
2021/07/02 03:35:32;;;;;;;12.47;7.40;;;;;;;20.78;100.00;98354.98;1638381;84;21500;-63
2021/07/02 03:38:00;;;;;;;10.32;7.42;;;;;;;20.84;100.00;98357.33;1631666;86;20993;-65
2021/07/02 03:40:28;;;;;;;11.35;8.53;;;;;;;20.87;100.00;98351.30;1614192;87;20934;-64
2021/07/02 03:42:57;;;;;;;11.57;8.20;;;;;;;20.91;100.00;98347.48;1604889;88;21130;-63
2021/07/02 03:45:27;;;;;;;10.32;7.90;;;;;;;20.93;100.00;98350.93;1635556;86;21484;-65
2021/07/02 03:47:56;;;;;;;9.88;7.33;;;;;;;20.98;100.00;98357.35;1635677;86;20955;-63
2021/07/02 03:50:27;;;;;;;12.45;7.35;;;;;;;21.01;100.00;98363.39;1635734;86;21426;-63
2021/07/02 03:52:56;;;;;;;9.03;7.50;;;;;;;21.05;100.00;98369.42;1635683;86;20987;-62
2021/07/02 03:55:25;;;;;;;9.05;7.58;;;;;;;21.09;100.00;98368.28;1635793;86;20898;-68
2021/07/02 03:57:53;;;;;;;12.15;7.83;;;;;;;21.13;100.00;98371.64;1636020;86;20946;-65
2021/07/02 04:00:21;;;;;;;10.10;7.37;;;;;;;21.16;100.00;98368.29;1635135;87;21861;-64
2021/07/02 04:02:50;;;;;;;11.12;7.50;;;;;;;21.20;100.00;98360.92;1634121;86;20978;-64
2021/07/02 04:05:20;;;;;;;8.58;7.37;;;;;;;21.26;100.00;98358.75;1634837;86;20990;-65
2021/07/02 04:07:47;;;;;;;8.35;6.53;;;;;;;21.31;100.00;98358.02;1629408;86;21149;-65
2021/07/02 04:10:15;;;;;;;8.58;7.62;;;;;;;21.33;100.00;98358.78;1635062;86;21059;-65
2021/07/02 04:12:43;;;;;;;8.88;7.30;;;;;;;21.36;100.00;98349.69;1635845;86;21076;-65
2021/07/02 04:15:12;;;;;;;9.98;7.67;;;;;;;21.41;100.00;98355.63;1635783;86;20934;-65
2021/07/02 04:17:41;;;;;;;8.58;7.45;;;;;;;21.45;100.00;98353.13;1635806;86;20947;-64
2021/07/02 04:20:10;;;;;;;11.60;8.30;;;;;;;21.50;100.00;98352.84;1635778;86;21065;-65
2021/07/02 04:22:39;;;;;;;8.85;7.75;;;;;;;21.53;100.00;98362.03;1635977;86;20918;-65
2021/07/02 04:25:07;;;;;;;10.13;8.73;;;;;;;21.55;100.00;98363.66;1635778;86;20950;-66
2021/07/02 04:27:35;;;;;;;7.78;7.05;;;;;;;21.59;100.00;98357.14;1635985;86;21442;-66
2021/07/02 04:30:03;;;;;;;8.78;7.80;;;;;;;21.64;100.00;98361.73;1635775;86;21029;-65
2021/07/02 04:32:31;;;;;;;9.33;7.90;;;;;;;21.69;100.00;98365.47;1636000;86;21042;-65
2021/07/02 04:34:59;;;;;;;8.95;8.05;;;;;;;21.74;100.00;98362.49;1635712;86;21490;-65
2021/07/02 04:37:26;;;;;;;10.98;7.97;;;;;;;21.79;100.00;98367.12;1636010;86;20918;-65
2021/07/02 04:39:53;;;;;;;8.68;7.53;;;;;;;21.84;100.00;98359.63;1635763;86;20922;-65
2021/07/02 04:42:22;;;;;;;9.35;7.60;;;;;;;21.89;100.00;98363.74;1636182;86;20914;-64
2021/07/02 04:44:50;;;;;;;8.48;7.60;;;;;;;21.97;100.00;98361.42;1635784;86;21794;-64
2021/07/02 04:47:17;;;;;;;9.65;7.45;;;;;;;22.05;100.00;98355.59;1635914;86;21591;-64
2021/07/02 04:49:45;;;;;;;11.43;8.68;;;;;;;22.10;100.00;98353.46;1635763;86;20922;-65
2021/07/02 04:52:12;;;;;;;11.43;9.33;;;;;;;22.18;100.00;98352.47;1635970;86;20982;-65
2021/07/02 04:54:41;;;;;;;8.98;7.90;;;;;;;22.27;100.00;98349.69;1635797;86;20977;-65
2021/07/02 04:57:08;;;;;;;10.58;7.67;;;;;;;22.38;100.00;98359.73;1636035;86;21843;-65
2021/07/02 04:59:38;;;;;;;8.03;7.22;;;;;;;22.48;100.00;98349.60;1635702;86;21440;-66
2021/07/02 05:02:08;;;;;;;7.53;6.72;;;;;;;22.58;100.00;98345.33;1635997;86;20887;-65
2021/07/02 05:04:35;;;;;;;7.85;7.05;;;;;;;22.67;100.00;98347.87;1635747;86;20978;-66
2021/07/02 05:07:04;;;;;;;10.15;6.67;;;;;;;22.73;100.00;98334.05;1635856;86;20934;-66
2021/07/02 05:09:31;;;;;;;8.15;6.47;;;;;;;22.81;100.00;98337.59;1629325;86;21108;-66
2021/07/02 05:11:59;;;;;;;7.70;6.30;;;;;;;22.89;100.00;98340.61;1626069;86;20911;-66
2021/07/02 05:14:27;;;;;;;9.13;6.00;;;;;;;22.99;100.00;98348.41;1635840;86;20970;-64
2021/07/02 05:16:55;;;;;;;8.90;6.05;;;;;;;23.05;100.00;98349.33;1635950;86;20934;-63
2021/07/02 05:19:23;;;;;;;7.08;5.75;;;;;;;23.09;100.00;98345.46;1635788;86;20978;-65
2021/07/02 05:21:51;;;;;;;7.47;5.92;;;;;;;23.13;100.00;98349.66;1635971;86;21092;-65
2021/07/02 05:24:19;;;;;;;6.80;6.05;;;;;;;23.18;100.00;98348.89;1635679;86;20914;-65
2021/07/02 05:26:47;;;;;;;6.87;5.60;;;;;;;23.22;100.00;98349.05;1635942;86;21422;-64
2021/07/02 05:29:14;;;;;;;8.50;5.37;;;;;;;23.28;100.00;98345.55;1635714;86;20890;-64
2021/07/02 05:31:43;;;;;;;8.38;5.85;;;;;;;23.36;100.00;98345.38;1635956;86;20929;-64
2021/07/02 05:34:11;;;;;;;7.95;5.45;;;;;;;23.45;100.00;98346.55;1635775;86;21153;-64
2021/07/02 05:36:38;;;;;;;8.83;5.70;;;;;;;23.53;100.00;98346.38;1635894;86;21433;-64
2021/07/02 05:39:08;;;;;;;8.48;5.62;;;;;;;23.64;100.00;98350.17;1635792;86;20899;-63
2021/07/02 05:41:36;;;;;;;7.70;6.37;;;;;;;23.77;100.00;98351.03;1635939;86;20954;-64
2021/07/02 05:44:05;;;;;;;7.67;6.05;;;;;;;23.90;100.00;98351.00;1635773;86;20874;-65
2021/07/02 05:46:33;;;;;;;9.43;6.28;;;;;;;24.00;100.00;98350.70;1635689;86;21921;-65
2021/07/02 05:49:04;;;;;;;10.45;6.15;;;;;;;24.11;100.00;98342.69;1635687;86;20950;-64
2021/07/02 05:51:32;;;;;;;8.10;6.20;;;;;;;24.22;100.00;98355.39;1635824;86;20875;-65
2021/07/02 05:54:00;;;;;;;8.53;6.87;;;;;;;24.32;100.00;98351.93;1635731;86;21457;-65
2021/07/02 05:56:29;;;;;;;8.63;7.47;;;;;;;24.42;100.00;98350.75;1635757;86;21606;-65
2021/07/02 05:58:59;;;;;;;7.90;7.15;;;;;;;24.49;100.00;98347.97;1635988;87;21103;-64
2021/07/02 06:01:26;;;;;;;10.93;7.70;;;;;;;24.57;100.00;98352.29;1635717;86;21528;-65
2021/07/02 06:03:54;;;;;;;8.40;7.47;;;;;;;24.61;100.00;98356.99;1635962;86;21619;-65
2021/07/02 06:06:21;;;;;;;11.05;8.45;;;;;;;24.64;100.00;98353.58;1635678;86;20890;-65
2021/07/02 06:08:50;;;;;;;10.18;7.97;;;;;;;24.66;100.00;98356.16;1635981;86;20887;-65
2021/07/02 06:11:18;;;;;;;11.03;8.00;;;;;;;24.68;100.00;98355.55;1635772;86;21103;-65
2021/07/02 06:13:45;;;;;;;12.90;8.00;;;;;;;24.66;100.00;98347.58;1628322;86;20918;-65
2021/07/02 06:16:12;;;;;;;10.98;8.28;;;;;;;24.63;100.00;98338.38;1623576;87;20962;-65
2021/07/02 06:18:40;;;;;;;10.05;8.03;;;;;;;24.62;100.00;98336.66;1623829;87;20954;-65
2021/07/02 06:21:07;;;;;;;10.53;7.95;;;;;;;24.63;100.00;98328.94;1623636;87;20922;-65
2021/07/02 06:23:35;;;;;;;10.30;7.85;;;;;;;24.63;100.00;98326.73;1623887;87;21083;-65
2021/07/02 06:26:03;;;;;;;9.60;8.63;;;;;;;24.64;100.00;98328.45;1623562;87;20915;-64
2021/07/02 06:28:30;;;;;;;10.40;8.85;;;;;;;24.67;100.00;98337.65;1623844;87;20950;-65
2021/07/02 06:30:58;;;;;;;10.10;8.63;;;;;;;24.70;100.00;98334.72;1623604;87;20958;-63
2021/07/02 06:33:26;;;;;;;9.80;8.43;;;;;;;24.75;100.00;98339.27;1623847;87;20891;-64
2021/07/02 06:35:54;;;;;;;14.58;8.83;;;;;;;24.81;100.00;98336.10;1623614;87;21102;-64
2021/07/02 06:38:21;;;;;;;11.97;9.20;;;;;;;24.88;100.00;98338.70;1623808;87;20942;-64
2021/07/02 06:40:48;;;;;;;14.15;9.70;;;;;;;24.95;100.00;98341.28;1623605;87;20887;-64
2021/07/02 06:43:15;;;;;;;10.98;9.28;;;;;;;25.04;100.00;98342.45;1623812;87;20926;-64
2021/07/02 06:45:43;;;;;;;19.77;9.23;;;;;;;25.12;100.00;98340.53;1623642;87;21462;-64
2021/07/02 06:48:10;;;;;;;10.58;9.48;;;;;;;25.19;100.00;98345.81;1623774;87;21780;-65
2021/07/02 06:50:39;;;;;;;13.08;9.45;;;;;;;25.23;100.00;98342.75;1623578;87;21441;-65
2021/07/02 06:53:07;;;;;;;11.60;8.85;;;;;;;25.30;100.00;98345.34;1623866;87;20887;-64
2021/07/02 06:55:34;;;;;;;12.73;8.63;;;;;;;25.39;100.00;98345.95;1623630;87;20934;-65
2021/07/02 06:58:03;;;;;;;10.05;8.10;;;;;;;25.51;100.00;98348.66;1623954;87;21002;-65
2021/07/02 07:00:31;;;;;;;11.00;8.63;;;;;;;25.59;100.00;98352.50;1623596;87;21100;-65
2021/07/02 07:02:58;;;;;;;9.30;8.23;;;;;;;25.65;100.00;98355.20;1623762;87;20950;-65
2021/07/02 07:05:26;;;;;;;13.83;8.60;;;;;;;25.70;100.00;98356.58;1623506;87;20963;-65
2021/07/02 07:07:54;;;;;;;9.85;8.58;;;;;;;25.72;100.00;98351.91;1623764;87;20942;-68
2021/07/02 07:10:21;;;;;;;13.75;9.58;;;;;;;25.71;100.00;98355.59;1622081;87;20951;-68
2021/07/02 07:12:49;;;;;;;12.85;9.70;;;;;;;25.71;100.00;98359.65;1615196;87;21051;-68
2021/07/02 07:15:17;;;;;;;15.00;9.45;;;;;;;25.70;100.00;98357.07;1598042;88;21493;-66
2021/07/02 07:17:44;;;;;;;10.35;9.25;;;;;;;25.69;100.00;98362.11;1598238;88;20970;-67
2021/07/02 07:20:13;;;;;;;14.47;9.60;;;;;;;25.68;100.00;98359.04;1597872;88;20934;-69
2021/07/02 07:22:40;;;;;;;11.25;10.00;;;;;;;25.64;100.00;98357.05;1597877;88;20993;-68
2021/07/02 07:25:09;;;;;;;10.25;9.23;;;;;;;25.58;100.00;98361.58;1597865;88;21125;-68
2021/07/02 07:27:37;;;;;;;9.68;8.75;;;;;;;25.55;100.00;98357.78;1629727;85;21547;-67
2021/07/02 07:30:06;;;;;;;12.23;9.38;;;;;;;25.53;100.00;98362.41;1647743;85;20947;-66
2021/07/02 07:32:37;;;;;;;12.25;9.20;;;;;;;25.51;100.00;98373.82;1611318;87;21512;-67
2021/07/02 07:36:09;;;;;;;14.20;9.65;;;;;;;25.51;100.00;98370.27;1609521;89;20964;-64
2021/07/02 07:37:46;;;;;;;10.03;9.13;;;;;;;25.51;100.00;98377.87;1615592;87;21125;-65
2021/07/02 07:40:14;;;;;;;10.58;9.48;;;;;;;25.51;100.00;98375.66;1609624;87;20939;-65
2021/07/02 07:42:41;;;;;;;13.40;10.18;;;;;;;25.47;100.00;98375.54;1608946;88;20910;-67
2021/07/02 07:45:09;;;;;;;12.28;10.28;;;;;;;25.43;100.00;98370.38;1609635;87;20941;-67
2021/07/02 07:47:36;;;;;;;14.20;10.75;;;;;;;25.42;100.00;98367.80;1609240;89;20981;-67
2021/07/02 07:50:12;;;;;;;11.95;10.30;;;;;;;25.42;100.00;98375.91;1584350;89;21516;-65
2021/07/02 07:55:25;;;;;;;13.00;11.00;;;;;;;25.38;100.00;98378.47;1609698;87;20931;-67
2021/07/02 07:57:52;;;;;;;15.60;10.43;;;;;;;25.35;100.00;98382.77;1609417;87;20918;-67
2021/07/02 08:00:21;;;;;;;13.78;10.48;;;;;;;25.34;100.00;98379.70;1609482;88;20940;-67
2021/07/02 08:02:48;;;;;;;10.93;9.80;;;;;;;25.33;100.00;98375.28;1584135;89;21821;-67
2021/07/02 08:05:16;;;;;;;13.08;10.50;;;;;;;25.31;100.00;98378.09;1594713;88;20923;-63
2021/07/02 08:07:44;;;;;;;16.20;11.03;;;;;;;25.31;100.00;98377.23;1594935;88;20939;-67
2021/07/02 08:10:15;;;;;;;14.30;10.68;;;;;;;25.29;100.00;98374.66;1594752;88;20967;-66
2021/07/02 08:12:42;;;;;;;12.40;11.10;;;;;;;25.25;100.00;98373.18;1595082;88;20888;-66
2021/07/02 08:15:12;;;;;;;15.58;11.10;;;;;;;25.23;100.00;98371.09;1603561;88;20970;-67
2021/07/02 08:17:39;;;;;;;14.68;10.88;;;;;;;25.21;100.00;98370.84;1662898;85;20994;-67
2021/07/02 08:20:08;;;;;;;18.10;10.58;;;;;;;25.18;100.00;98367.89;1662762;85;20950;-66
2021/07/02 08:22:35;;;;;;;14.70;11.28;;;;;;;25.18;100.00;98353.05;1662717;85;20942;-67
2021/07/02 08:25:04;;;;;;;11.25;9.83;;;;;;;25.13;100.00;98332.80;1662746;85;20918;-67
2021/07/02 08:29:22;;;;;;;13.03;10.45;;;;;;;25.09;100.00;98324.95;1662743;85;21753;-66
2021/07/02 08:30:02;;;;;;;12.80;10.65;;;;;;;25.03;100.00;98311.90;1659003;85;20863;-67
2021/07/02 08:32:29;;;;;;;11.68;10.30;;;;;;;24.92;100.00;98325.83;1662730;85;20930;-67
2021/07/02 08:34:57;;;;;;;10.35;9.23;;;;;;;24.84;100.00;98346.66;1662744;85;20918;-67
2021/07/02 08:37:24;;;;;;;20.75;15.83;;;;;;;24.82;100.00;98370.19;1662776;85;20958;-67
2021/07/02 08:39:51;;;;;;;12.20;10.90;;;;;;;24.83;100.00;98376.44;1662968;85;21103;-67
2021/07/02 08:42:19;;;;;;;14.25;10.50;;;;;;;24.80;100.00;98364.91;1662705;85;20950;-66
2021/07/02 08:44:46;;;;;;;37.80;19.20;;;;;;;24.84;100.00;98363.33;1662990;85;21468;-64
2021/07/02 08:47:14;;;;;;;21.50;15.50;;;;;;;24.84;100.00;98365.53;1662725;85;20950;-66
2021/07/02 08:49:43;;;;;;;15.30;12.65;;;;;;;24.83;100.00;98375.95;1615223;85;21044;-65
2021/07/02 08:52:11;;;;;;;14.70;11.45;;;;;;;24.85;100.00;98375.34;1662718;85;21058;-66
2021/07/02 08:54:39;;;;;;;11.70;10.13;;;;;;;24.85;100.00;98355.11;1662887;85;20874;-66
2021/07/02 08:57:07;;;;;;;16.27;10.90;;;;;;;24.87;100.00;98343.72;1636431;86;21474;-65
2021/07/02 08:59:34;;;;;;;13.28;10.13;;;;;;;24.90;100.00;98338.09;1662927;85;21449;-65
2021/07/02 09:02:02;;;;;;;20.02;9.18;;;;;;;24.88;100.00;98340.05;1662744;85;20890;-66
2021/07/02 09:04:33;;;;;;;11.00;9.83;;;;;;;24.89;100.00;98328.77;1662909;85;21092;-64
2021/07/02 09:07:12;;;;;;;10.95;9.13;;;;;;;24.93;100.00;98322.16;1662506;85;20930;-65
2021/07/02 09:09:56;;;;;;;9.68;8.00;;;;;;;24.92;100.00;98314.55;1662915;85;20895;-64
2021/07/02 09:12:33;;;;;;;10.65;8.48;;;;;;;24.94;100.00;98320.68;1662728;85;20918;-65
2021/07/02 09:15:12;;;;;;;11.40;9.18;;;;;;;24.94;100.00;98331.96;1647691;85;36546;-67
2021/07/02 09:17:55;;;;;;;13.58;9.00;;;;;;;24.99;100.00;98340.59;1662740;85;21140;-65
2021/07/02 09:20:29;;;;;;;9.63;8.63;;;;;;;25.04;100.00;98338.39;1662975;85;20903;-66
2021/07/02 09:23:00;;;;;;;11.85;9.20;;;;;;;25.04;100.00;98344.66;1662742;85;20955;-67
2021/07/02 09:25:50;;;;;;;10.10;8.23;;;;;;;25.06;100.00;98345.88;1662994;85;20914;-66
2021/07/02 09:28:19;;;;;;;9.88;7.70;;;;;;;25.07;100.00;98348.49;1662778;85;21018;-66
2021/07/02 09:30:48;;;;;;;13.85;7.92;;;;;;;25.08;100.00;98351.56;1663001;85;21927;-64
2021/07/02 09:33:23;;;;;;;11.20;8.80;;;;;;;25.10;100.00;98352.30;1662678;85;20946;-63
2021/07/02 09:35:58;;;;;;;10.10;8.10;;;;;;;25.13;100.00;98363.84;1663018;85;20955;-63
2021/07/02 09:38:40;;;;;;;8.65;7.85;;;;;;;25.16;100.00;98367.64;1662868;85;20942;-63
2021/07/02 09:41:09;;;;;;;9.55;8.03;;;;;;;25.15;100.00;98359.18;1663021;85;20946;-63
2021/07/02 09:43:39;;;;;;;9.83;8.20;;;;;;;25.18;100.00;98352.19;1662865;85;21371;-64
2021/07/02 09:46:08;;;;;;;8.63;7.62;;;;;;;25.21;100.00;98355.51;1662930;85;20910;-64
2021/07/02 09:48:43;;;;;;;17.52;11.18;;;;;;;25.26;100.00;98370.85;1662679;85;20878;-64
2021/07/02 09:51:11;;;;;;;13.50;9.55;;;;;;;25.32;100.00;98377.61;1663046;85;21409;-64
2021/07/02 09:53:40;;;;;;;9.20;8.30;;;;;;;25.34;100.00;98361.66;1662801;85;20891;-64
2021/07/02 09:56:12;;;;;;;11.68;8.98;;;;;;;25.38;100.00;98359.09;1663062;85;21752;-64
2021/07/02 09:58:41;;;;;;;12.85;8.95;;;;;;;25.41;100.00;98363.38;1662150;85;20871;-64
2021/07/02 10:01:09;;;;;;;10.32;8.03;;;;;;;25.46;100.00;98373.33;1662987;85;20955;-64
2021/07/02 10:03:45;;;;;;;10.05;7.92;;;;;;;25.50;100.00;98377.50;1662682;85;21451;-64
2021/07/02 10:06:25;;;;;;;9.48;7.58;;;;;;;25.53;100.00;98369.16;1663043;85;20926;-67
2021/07/02 10:09:00;;;;;;;19.20;12.63;;;;;;;25.56;100.00;98370.79;1662956;85;20943;-66
2021/07/02 10:11:23;;;;;;;11.80;9.55;;;;;;;25.55;100.00;98364.53;1662028;85;20925;-64
2021/07/02 10:13:51;;;;;;;9.95;8.53;;;;;;;25.53;100.00;98368.30;1648347;84;21507;-66
2021/07/02 10:16:20;;;;;;;13.80;10.95;;;;;;;25.52;100.00;98365.23;1645288;85;20965;-66
2021/07/02 10:18:51;;;;;;;14.87;9.90;;;;;;;25.52;100.00;98370.14;1644151;86;20961;-66
2021/07/02 10:21:20;;;;;;;15.30;11.28;;;;;;;25.52;100.00;98364.74;1643140;86;21116;-67
2021/07/02 10:23:49;;;;;;;12.90;9.20;;;;;;;25.52;100.00;98365.23;1644090;86;20905;-66
2021/07/02 10:26:19;;;;;;;13.58;8.85;;;;;;;25.52;100.00;98372.84;1644345;86;21429;-66
2021/07/02 10:28:46;;;;;;;8.78;7.97;;;;;;;25.55;100.00;98375.33;1644253;86;20914;-66
2021/07/02 10:31:16;;;;;;;9.83;7.90;;;;;;;25.61;100.00;98380.73;1644424;86;21412;-66
2021/07/02 10:33:49;;;;;;;10.32;6.90;;;;;;;25.65;100.00;98386.26;1644089;86;21106;-66
2021/07/02 10:36:17;;;;;;;7.50;6.67;;;;;;;25.73;100.00;98382.48;1644252;86;20914;-66
2021/07/02 10:38:50;;;;;;;7.55;6.85;;;;;;;25.84;100.00;98387.88;1644120;86;20966;-64
2021/07/02 10:41:26;;;;;;;7.03;6.17;;;;;;;25.92;100.00;98381.86;1644799;86;20888;-67
2021/07/02 10:44:14;;;;;;;7.15;6.45;;;;;;;25.96;100.00;98373.88;1627619;87;20974;-67
2021/07/02 10:47:00;;;;;;;8.08;7.28;;;;;;;26.01;100.00;98372.55;1641169;85;21098;-66
2021/07/02 10:49:43;;;;;;;8.78;6.97;;;;;;;26.07;100.00;98370.33;1643217;86;20881;-67
2021/07/02 10:52:23;;;;;;;;;;;;;;;26.11;100.00;98370.44;1646696;85;20957;-67
2021/07/02 10:54:52;;;;;;;12.43;6.85;;;;;;;26.13;100.00;98370.69;1644089;85;20142;-66
2021/07/02 10:57:21;;;;;;;19.92;6.85;;;;;;;26.16;100.00;98369.57;1645945;86;20961;-67
2021/07/02 11:00:00;;;;;;;7.75;6.97;;;;;;;26.16;100.00;98369.08;1645765;85;21057;-67
2021/07/02 11:02:29;;;;;;;6.80;6.20;;;;;;;26.17;100.00;98367.23;1643901;85;21524;-67
2021/07/02 11:04:58;;;;;;;9.98;7.20;;;;;;;26.18;100.00;98360.84;1639220;85;20993;-67
2021/07/02 11:07:31;;;;;;;7.10;6.45;;;;;;;26.19;100.00;98359.37;1645860;85;21558;-67
2021/07/02 11:10:07;;;;;;;7.47;6.55;;;;;;;26.21;100.00;98361.95;1646094;86;20967;-67
2021/07/02 11:12:47;;;;;;;7.62;6.58;;;;;;;26.22;100.00;98360.47;1646282;85;21105;-66
2021/07/02 11:15:17;;;;;;;;;;;;;;;26.22;100.00;98352.36;1621378;86;20925;-67
2021/07/02 11:17:52;;;;;;;9.18;6.67;;;;;;;26.22;100.00;98349.66;1618547;88;20122;-65
2021/07/02 11:20:25;;;;;;;7.20;6.47;;;;;;;26.21;100.00;98347.94;1627211;86;20957;-64
2021/07/02 11:23:01;;;;;;;7.55;6.75;;;;;;;26.19;100.00;98337.74;1662839;85;20962;-65
2021/07/02 11:25:50;;;;;;;9.05;7.15;;;;;;;26.18;100.00;98336.52;1662785;85;21939;-64
2021/07/02 11:28:21;;;;;;;7.60;6.80;;;;;;;26.15;100.00;98344.88;1661180;85;20870;-64
2021/07/02 11:30:48;;;;;;;7.47;6.20;;;;;;;26.11;100.00;98338.01;1662790;85;20926;-63
2021/07/02 11:33:21;;;;;;;30.27;6.65;;;;;;;26.07;100.00;98334.70;1662979;85;20895;-64
2021/07/02 11:35:55;;;;;;;10.20;6.55;;;;;;;26.03;100.00;98325.98;1662743;86;20922;-65